createdAt,value
2023-01-29T00:02:10.813Z,100059.50
2023-01-29T00:04:37.997Z,100049.16
2023-01-29T00:07:05.114Z,100038.97
2023-01-29T00:09:32.396Z,100069.19
2023-01-29T00:11:59.490Z,100067.28
2023-01-29T00:14:27.716Z,100071.94
2023-01-29T00:16:55.128Z,100064.00
2023-01-29T00:19:22.324Z,100049.91
2023-01-29T00:21:49.456Z,100057.69
2023-01-29T00:24:16.692Z,100053.03
2023-01-29T00:26:44.204Z,100047.69
2023-01-29T00:29:11.726Z,100051.22
2023-01-29T00:31:38.991Z,100047.91
2023-01-29T00:34:07.580Z,100054.38
2023-01-29T00:36:34.714Z,100039.63
2023-01-29T00:39:02.796Z,100044.50
2023-01-29T00:41:50.729Z,100037.91
2023-01-29T00:44:36.994Z,100007.25
2023-01-29T00:47:04.977Z,100034.94
2023-01-29T00:49:32.185Z,100016.53
2023-01-29T00:52:25.535Z,100035.53
2023-01-29T00:54:54.559Z,100026.38
2023-01-29T00:57:23.007Z,100030.09
2023-01-29T00:59:50.282Z,100028.78
2023-01-29T01:02:35.897Z,100027.13
2023-01-29T01:05:06.328Z,100029.63
2023-01-29T01:07:34.385Z,100023.78
2023-01-29T01:10:20.089Z,100016.56
2023-01-29T01:12:56.006Z,100023.97
2023-01-29T01:15:25.477Z,100021.38
2023-01-29T01:17:57.989Z,100023.50
2023-01-29T01:20:27.161Z,100024.88
2023-01-29T01:22:54.870Z,100012.81
2023-01-29T01:25:23.754Z,100024.31
2023-01-29T01:27:55.457Z,100026.91
2023-01-29T01:30:23.947Z,100029.53
2023-01-29T01:32:51.561Z,100017.28
2023-01-29T01:35:19.064Z,100029.44
2023-01-29T01:37:46.175Z,100024.06
2023-01-29T01:40:18.572Z,100026.94
2023-01-29T01:42:51.135Z,100023.97
2023-01-29T01:45:38.505Z,100018.97
2023-01-29T01:48:05.633Z,100013.75
2023-01-29T01:50:53.759Z,100008.28
2023-01-29T01:53:26.804Z,99997.81
2023-01-29T01:56:00.305Z,100001.69
2023-01-29T01:58:51.796Z,100017.84
2023-01-29T02:01:26.553Z,100013.28
2023-01-29T02:04:25.149Z,100012.81
2023-01-29T02:07:12.816Z,99979.59
2023-01-29T02:09:46.464Z,100005.91
2023-01-29T02:12:16.224Z,99992.72
2023-01-29T02:14:44.344Z,100003.03
2023-01-29T02:17:32.423Z,100001.72
2023-01-29T02:20:14.709Z,99992.94
2023-01-29T02:23:02.728Z,99995.47
2023-01-29T02:26:04.371Z,99980.19
2023-01-29T02:28:49.082Z,99988.78
2023-01-29T02:31:41.603Z,99970.19
2023-01-29T02:34:27.749Z,99972.25
2023-01-29T02:37:09.619Z,99958.44
2023-01-29T02:39:59.116Z,99963.34
2023-01-29T02:42:37.806Z,99966.31
2023-01-29T02:45:22.583Z,99958.53
2023-01-29T02:48:02.017Z,99946.69
2023-01-29T02:50:39.067Z,99955.38
2023-01-29T02:53:12.779Z,99949.25
2023-01-29T02:55:42.907Z,99948.78
2023-01-29T02:58:53.164Z,99945.03
2023-01-29T03:01:36.097Z,99926.97
2023-01-29T03:04:10.157Z,99933.16
2023-01-29T03:06:43.994Z,99934.28
2023-01-29T03:09:20.623Z,99907.78
2023-01-29T03:11:52.981Z,99913.31
2023-01-29T03:14:54.065Z,99921.56
2023-01-29T03:17:31.737Z,99922.59
2023-01-29T03:19:59.853Z,99912.97
2023-01-29T03:22:27.957Z,99906.09
2023-01-29T03:25:18.730Z,99911.75
2023-01-29T03:28:16.183Z,99913.25
2023-01-29T03:31:11.125Z,99908.09
2023-01-29T03:33:54.687Z,99889.06
2023-01-29T03:36:37.949Z,99877.69
2023-01-29T03:39:11.624Z,99877.19
2023-01-29T03:42:10.228Z,99868.94
2023-01-29T03:44:49.509Z,99871.53
2023-01-29T03:47:48.329Z,99868.72
2023-01-29T03:50:35.428Z,99867.63
2023-01-29T03:53:07.680Z,99864.75
2023-01-29T03:55:41.444Z,99855.44
2023-01-29T03:58:33.262Z,99854.97
2023-01-29T04:01:07.217Z,99842.81
2023-01-29T04:03:37.732Z,99821.34
2023-01-29T04:06:13.270Z,99837.34
2023-01-29T04:09:04.665Z,99837.38
2023-01-29T04:11:37.511Z,99838.03
2023-01-29T04:14:07.055Z,99836.09
2023-01-29T04:16:40.140Z,99822.88
2023-01-29T04:19:20.861Z,99824.47
2023-01-29T04:21:56.301Z,99827.38
2023-01-29T04:24:23.548Z,99827.38
2023-01-29T04:27:17.731Z,99824.97
2023-01-29T04:30:10.025Z,99824.47
2023-01-29T04:33:14.177Z,99816.78
2023-01-29T04:36:22.859Z,99824.06
2023-01-29T04:39:25.412Z,99819.38
2023-01-29T04:41:58.201Z,99809.31
2023-01-29T04:44:41.899Z,99812.34
2023-01-29T04:47:33.357Z,99819.91
2023-01-29T04:50:12.997Z,99808.84
2023-01-29T04:52:51.088Z,99817.00
2023-01-29T04:55:36.120Z,99812.34
2023-01-29T04:58:21.184Z,99808.19
2023-01-29T05:00:50.173Z,99814.22
2023-01-29T05:03:17.576Z,99799.88
2023-01-29T05:05:48.531Z,99790.09
2023-01-29T05:08:17.863Z,99799.28
2023-01-29T05:10:47.061Z,99794.22
2023-01-29T05:13:15.409Z,99794.22
2023-01-29T05:15:49.223Z,99790.03
2023-01-29T05:18:16.680Z,99780.78
2023-01-29T05:20:44.641Z,99777.06
2023-01-29T05:23:21.763Z,99794.75
2023-01-29T05:25:50.870Z,99804.94
2023-01-29T05:28:18.973Z,99785.19
2023-01-29T05:30:52.754Z,99778.94
2023-01-29T05:33:31.794Z,99796.38
2023-01-29T05:36:00.785Z,99799.28
2023-01-29T05:38:28.122Z,99803.44
2023-01-29T05:40:55.238Z,99789.44
2023-01-29T05:43:25.070Z,99797.44
2023-01-29T05:45:59.397Z,99795.41
2023-01-29T05:48:29.124Z,99801.63
2023-01-29T05:51:03.958Z,99803.56
2023-01-29T05:53:32.156Z,99796.16
2023-01-29T05:56:02.511Z,99801.38
2023-01-29T05:58:34.162Z,99800.31
2023-01-29T06:01:15.308Z,99787.97
2023-01-29T06:03:42.506Z,99803.03
2023-01-29T06:06:09.887Z,99796.91
2023-01-29T06:08:37.292Z,99799.66
2023-01-29T06:11:07.155Z,99800.09
2023-01-29T06:13:34.461Z,99804.47
2023-01-29T06:16:04.554Z,99797.22
2023-01-29T06:18:31.654Z,99800.50
2023-01-29T06:21:02.785Z,99797.50
2023-01-29T06:23:31.134Z,99803.44
2023-01-29T06:26:03.440Z,99795.38
2023-01-29T06:28:31.201Z,99800.47
2023-01-29T06:31:11.424Z,99796.59
2023-01-29T06:33:43.581Z,99793.88
2023-01-29T06:36:10.699Z,99788.06
2023-01-29T06:38:37.842Z,99764.38
2023-01-29T06:41:13.340Z,99756.91
2023-01-29T06:43:40.504Z,99787.84
2023-01-29T06:46:08.915Z,99777.25
2023-01-29T06:48:36.348Z,99773.91
2023-01-29T06:51:05.493Z,99779.94
2023-01-29T06:53:34.621Z,99782.63
2023-01-29T06:56:01.754Z,99770.19
2023-01-29T06:58:28.867Z,99777.56
2023-01-29T07:01:10.367Z,99758.56
2023-01-29T07:03:37.881Z,99769.16
2023-01-29T07:06:06.240Z,99754.16
2023-01-29T07:08:37.005Z,99758.56
2023-01-29T07:11:05.280Z,99756.06
2023-01-29T07:13:32.774Z,99755.03
2023-01-29T07:16:01.535Z,99753.38
2023-01-29T07:18:29.633Z,99746.53
2023-01-29T07:20:57.214Z,99743.00
2023-01-29T07:23:24.636Z,99750.19
2023-01-29T07:25:51.938Z,99748.41
2023-01-29T07:28:20.714Z,99752.56
2023-01-29T07:30:48.090Z,99751.44
2023-01-29T07:33:15.229Z,99746.84
2023-01-29T07:35:43.639Z,99746.81
2023-01-29T07:38:11.654Z,99744.19
2023-01-29T07:40:38.967Z,99753.91
2023-01-29T07:43:07.722Z,99753.97
2023-01-29T07:45:39.497Z,99741.16
2023-01-29T07:48:10.065Z,99743.19
2023-01-29T07:50:37.520Z,99741.09
2023-01-29T07:53:04.826Z,99744.66
2023-01-29T07:55:33.414Z,99753.06
2023-01-29T07:58:04.048Z,99746.47
2023-01-29T08:00:31.940Z,99737.13
2023-01-29T08:03:04.273Z,99737.88
2023-01-29T08:05:31.446Z,99729.28
2023-01-29T08:08:06.498Z,99724.06
2023-01-29T08:10:39.221Z,99725.28
2023-01-29T08:13:07.267Z,99725.69
2023-01-29T08:15:37.186Z,99724.16
2023-01-29T08:18:06.091Z,99725.31
2023-01-29T08:20:33.464Z,99708.69
2023-01-29T08:23:06.016Z,99694.56
2023-01-29T08:25:34.768Z,99698.38
2023-01-29T08:28:02.407Z,99690.38
2023-01-29T08:30:31.879Z,99701.53
2023-01-29T08:32:59.145Z,99700.09
2023-01-29T08:35:26.869Z,99697.06
2023-01-29T08:38:03.309Z,99701.22
2023-01-29T08:40:33.000Z,99676.91
2023-01-29T08:43:02.975Z,99683.56
2023-01-29T08:45:36.832Z,99692.25
2023-01-29T08:48:04.561Z,99706.66
2023-01-29T08:50:32.488Z,99704.41
2023-01-29T08:53:01.057Z,99706.91
2023-01-29T08:55:29.343Z,99686.59
2023-01-29T08:57:59.435Z,99706.16
2023-01-29T09:00:26.744Z,99706.41
2023-01-29T09:02:53.891Z,99695.28
2023-01-29T09:05:21.096Z,99690.59
2023-01-29T09:07:48.207Z,99679.94
2023-01-29T09:10:16.425Z,99688.06
2023-01-29T09:12:43.787Z,99673.69
2023-01-29T09:15:11.483Z,99674.88
2023-01-29T09:17:38.926Z,99649.38
2023-01-29T09:20:06.794Z,99676.53
2023-01-29T09:22:34.248Z,99681.06
2023-01-29T09:25:01.372Z,99676.38
2023-01-29T09:27:30.695Z,99679.00
2023-01-29T09:29:57.822Z,99679.63
2023-01-29T09:32:52.097Z,99671.69
2023-01-29T09:35:12.222Z,99670.41
2023-01-29T09:37:39.378Z,99655.84
2023-01-29T09:40:07.472Z,99642.31
2023-01-29T09:42:44.217Z,99636.97
2023-01-29T09:45:16.590Z,99635.09
2023-01-29T09:47:44.885Z,99625.78
2023-01-29T09:50:14.940Z,99636.16
2023-01-29T09:53:16.729Z,99616.41
2023-01-29T09:55:56.311Z,99627.19
2023-01-29T09:58:29.754Z,99631.81
2023-01-29T10:01:26.966Z,99632.69
2023-01-29T10:04:15.480Z,99634.22
2023-01-29T10:06:54.750Z,99620.38
2023-01-29T10:09:42.989Z,99613.06
2023-01-29T10:12:21.071Z,99609.75
2023-01-29T10:15:07.275Z,99607.78
2023-01-29T10:17:37.318Z,99601.06
2023-01-29T10:20:33.787Z,99594.78
2023-01-29T10:23:15.841Z,99593.69
2023-01-29T10:25:46.167Z,99573.31
2023-01-29T10:28:38.267Z,99574.06
2023-01-29T10:31:16.589Z,99560.00
2023-01-29T10:34:01.414Z,99551.69
2023-01-29T10:36:38.790Z,99558.19
2023-01-29T10:39:05.974Z,99546.97
2023-01-29T10:42:01.295Z,99520.91
2023-01-29T10:44:57.593Z,99534.06
2023-01-29T10:47:36.478Z,99526.72
2023-01-29T10:50:24.286Z,99520.66
2023-01-29T10:53:20.838Z,99512.44
2023-01-29T10:55:53.642Z,99507.94
2023-01-29T10:58:41.993Z,99505.56
2023-01-29T11:01:10.915Z,99495.69
2023-01-29T11:03:38.288Z,99511.63
2023-01-29T11:06:17.667Z,99511.13
2023-01-29T11:09:02.950Z,99501.81
2023-01-29T11:11:46.243Z,99504.91
2023-01-29T11:14:27.141Z,99502.75
2023-01-29T11:16:54.649Z,99497.19
2023-01-29T11:19:37.907Z,99497.53
2023-01-29T11:22:05.080Z,99492.31
2023-01-29T11:24:32.259Z,99493.00
2023-01-29T11:27:00.565Z,99490.53
2023-01-29T11:29:27.879Z,99484.91
2023-01-29T11:31:56.802Z,99477.59
2023-01-29T11:34:27.721Z,99492.28
2023-01-29T11:37:15.141Z,99500.44
2023-01-29T11:39:48.930Z,99506.97
2023-01-29T11:42:23.464Z,99481.94
2023-01-29T11:44:50.589Z,99479.41
2023-01-29T11:47:21.409Z,99469.44
2023-01-29T11:49:51.014Z,99476.66
2023-01-29T11:52:22.013Z,99478.84
2023-01-29T11:54:58.220Z,99483.47
2023-01-29T11:57:35.640Z,99471.56
2023-01-29T12:00:19.904Z,99472.72
2023-01-29T12:02:53.959Z,99470.00
2023-01-29T12:05:26.776Z,99471.66
2023-01-29T12:08:00.125Z,99461.16
2023-01-29T12:10:37.646Z,99461.97
2023-01-29T12:13:26.775Z,99468.13
2023-01-29T12:16:39.947Z,99468.22
2023-01-29T12:19:25.625Z,99462.00
2023-01-29T12:22:04.016Z,99467.88
2023-01-29T12:24:33.906Z,99463.16
2023-01-29T12:27:18.971Z,99471.09
2023-01-29T12:29:50.043Z,99463.91
2023-01-29T12:32:16.976Z,99461.63
2023-01-29T12:35:08.151Z,99456.06
2023-01-29T12:37:41.963Z,99456.91
2023-01-29T12:40:17.584Z,99454.91
2023-01-29T12:42:50.508Z,99443.53
2023-01-29T12:45:23.854Z,99451.44
2023-01-29T12:48:06.059Z,99450.63
2023-01-29T12:50:36.429Z,99453.06
2023-01-29T12:53:26.886Z,99449.78
2023-01-29T12:55:59.057Z,99452.75
2023-01-29T12:58:45.565Z,99447.88
2023-01-29T13:01:16.987Z,99461.44
2023-01-29T13:03:53.954Z,99464.13
2023-01-29T13:06:31.299Z,99455.72
2023-01-29T13:09:07.164Z,99455.44
2023-01-29T13:11:43.880Z,99454.44
2023-01-29T13:14:42.381Z,99451.66
2023-01-29T13:17:23.530Z,99452.81
2023-01-29T13:19:54.255Z,99445.19
2023-01-29T13:22:35.531Z,99451.44
2023-01-29T13:25:05.471Z,99441.03
2023-01-29T13:27:35.498Z,99445.25
2023-01-29T13:30:03.861Z,99435.84
2023-01-29T13:32:35.088Z,99408.56
2023-01-29T13:35:14.271Z,99427.72
2023-01-29T13:37:48.874Z,99437.81
2023-01-29T13:40:26.988Z,99437.66
2023-01-29T13:42:57.267Z,99410.88
2023-01-29T13:45:27.980Z,99422.31
2023-01-29T13:48:10.417Z,99419.53
2023-01-29T13:50:43.159Z,99423.44
2023-01-29T13:53:23.031Z,99421.31
2023-01-29T13:55:50.205Z,99422.66
2023-01-29T13:58:32.453Z,99418.91
2023-01-29T14:01:01.545Z,99425.06
2023-01-29T14:03:35.923Z,99414.28
2023-01-29T14:06:38.604Z,99414.44
2023-01-29T14:09:37.428Z,99411.00
2023-01-29T14:12:36.296Z,99415.13
2023-01-29T14:15:27.827Z,99416.56
2023-01-29T14:18:19.790Z,99419.75
2023-01-29T14:20:58.784Z,99407.94
2023-01-29T14:23:35.931Z,99401.72
2023-01-29T14:26:06.254Z,99401.41
2023-01-29T14:28:35.432Z,99392.25
2023-01-29T14:31:03.801Z,99393.44
2023-01-29T14:33:38.185Z,99389.44
2023-01-29T14:36:15.687Z,99384.41
2023-01-29T14:38:53.851Z,99387.06
2023-01-29T14:41:29.729Z,99385.41
2023-01-29T14:44:35.615Z,99396.47
2023-01-29T14:47:03.774Z,99391.22
2023-01-29T14:49:49.673Z,99387.44
2023-01-29T14:52:19.118Z,99391.38
2023-01-29T14:54:48.621Z,99387.97
2023-01-29T14:57:18.135Z,99381.00
2023-01-29T15:00:17.612Z,99378.91
2023-01-29T15:02:46.256Z,99386.53
2023-01-29T15:05:29.048Z,99382.75
2023-01-29T15:08:03.367Z,99389.47
2023-01-29T15:11:14.062Z,99358.69
2023-01-29T15:13:56.236Z,99390.22
2023-01-29T15:16:30.591Z,99383.41
2023-01-29T15:19:13.053Z,99382.09
2023-01-29T15:21:40.154Z,99384.56
2023-01-29T15:24:07.590Z,99385.31
2023-01-29T15:26:36.521Z,99377.56
2023-01-29T15:29:05.966Z,99379.03
2023-01-29T15:31:35.569Z,99364.53
2023-01-29T15:34:07.720Z,99384.03
2023-01-29T15:36:37.184Z,99392.75
2023-01-29T15:39:10.114Z,99388.50
2023-01-29T15:41:37.295Z,99388.38
2023-01-29T15:44:10.636Z,99396.72
2023-01-29T15:46:41.002Z,99394.13
2023-01-29T15:49:11.797Z,99385.25
2023-01-29T15:51:39.538Z,99393.22
2023-01-29T15:54:15.491Z,99387.06
2023-01-29T15:56:47.368Z,99377.38
2023-01-29T15:59:26.708Z,99381.09
2023-01-29T16:01:54.506Z,99381.34
2023-01-29T16:04:27.010Z,99369.50
2023-01-29T16:06:55.565Z,99380.66
2023-01-29T16:09:26.150Z,99368.75
2023-01-29T16:11:57.483Z,99372.84
2023-01-29T16:14:26.219Z,99359.94
2023-01-29T16:16:54.422Z,99368.00
2023-01-29T16:19:27.723Z,99345.66
2023-01-29T16:22:01.374Z,99361.81
2023-01-29T16:24:31.134Z,99350.16
2023-01-29T16:27:02.281Z,99339.78
2023-01-29T16:29:32.899Z,99350.44
2023-01-29T16:32:02.829Z,99349.50
2023-01-29T16:34:36.391Z,99343.63
2023-01-29T16:37:07.370Z,99358.28
2023-01-29T16:39:39.647Z,99358.38
2023-01-29T16:42:13.080Z,99348.28
2023-01-29T16:44:47.074Z,99358.69
2023-01-29T16:47:43.495Z,99349.09
2023-01-29T16:50:43.234Z,99343.44
2023-01-29T16:53:23.406Z,99334.34
2023-01-29T16:55:52.617Z,99333.06
2023-01-29T16:58:25.715Z,99342.09
2023-01-29T17:00:56.769Z,99349.25
2023-01-29T17:03:27.740Z,99335.81
2023-01-29T17:05:55.467Z,99343.38
2023-01-29T17:08:33.878Z,99345.78
2023-01-29T17:11:01.816Z,99312.13
2023-01-29T17:13:36.516Z,99333.00
2023-01-29T17:16:22.573Z,99311.75
2023-01-29T17:18:49.929Z,99315.44
2023-01-29T17:21:17.137Z,99306.38
2023-01-29T17:23:44.222Z,99320.97
2023-01-29T17:26:13.760Z,99303.72
2023-01-29T17:28:42.329Z,99311.84
2023-01-29T17:31:10.152Z,99324.22
2023-01-29T17:33:43.186Z,99302.19
2023-01-29T17:36:15.255Z,99311.91
2023-01-29T17:38:42.671Z,99307.72
2023-01-29T17:41:26.951Z,99318.09
2023-01-29T17:43:54.500Z,99306.75
2023-01-29T17:46:22.239Z,99324.66
2023-01-29T17:48:49.645Z,99321.28
2023-01-29T17:51:18.175Z,99314.59
2023-01-29T17:53:46.980Z,99302.31
2023-01-29T17:56:21.568Z,99293.56
2023-01-29T17:58:48.706Z,99309.16
2023-01-29T18:01:15.874Z,99306.00
2023-01-29T18:03:46.231Z,99306.09
2023-01-29T18:06:28.543Z,99297.78
2023-01-29T18:08:56.634Z,99298.19
2023-01-29T18:11:24.236Z,99306.72
2023-01-29T18:13:51.697Z,99295.59
2023-01-29T18:16:18.979Z,99289.28
2023-01-29T18:18:46.148Z,99295.41
2023-01-29T18:21:13.300Z,99295.66
2023-01-29T18:23:41.063Z,99295.03
2023-01-29T18:26:11.855Z,99283.00
2023-01-29T18:28:39.307Z,99291.75
2023-01-29T18:31:06.638Z,99291.25
2023-01-29T18:33:35.274Z,99291.91
2023-01-29T18:36:05.020Z,99265.28
2023-01-29T18:38:35.085Z,99293.47
2023-01-29T18:41:10.542Z,99296.16
2023-01-29T18:43:39.558Z,99290.59
2023-01-29T18:46:07.612Z,99286.09
2023-01-29T18:48:35.264Z,99271.59
2023-01-29T18:51:02.563Z,99264.59
2023-01-29T18:53:29.685Z,99287.06
2023-01-29T18:56:06.823Z,99290.47
2023-01-29T18:58:38.238Z,99280.91
2023-01-29T19:01:09.648Z,99265.94
2023-01-29T19:03:40.762Z,99271.97
2023-01-29T19:06:09.989Z,99282.34
2023-01-29T19:08:37.390Z,99259.16
2023-01-29T19:11:08.228Z,99262.22
2023-01-29T19:13:36.746Z,99284.13
2023-01-29T19:16:09.386Z,99279.38
2023-01-29T19:18:37.075Z,99274.00
2023-01-29T19:21:11.855Z,99254.44
2023-01-29T19:23:46.250Z,99253.16
2023-01-29T19:26:14.868Z,99268.34
2023-01-29T19:31:40.563Z,99258.66
2023-01-29T19:34:08.266Z,99253.25
2023-01-29T19:36:36.452Z,99250.91
2023-01-29T19:39:05.098Z,99243.13
2023-01-29T19:41:32.678Z,99241.25
2023-01-29T19:43:59.828Z,99250.72
2023-01-29T19:46:27.044Z,99241.03
2023-01-29T19:48:57.044Z,99232.75
2023-01-29T19:51:24.603Z,99242.81
2023-01-29T19:53:52.015Z,99228.97
2023-01-29T19:56:20.044Z,99230.41
2023-01-29T19:58:47.638Z,99240.81
2023-01-29T20:01:20.671Z,99230.88
2023-01-29T20:03:49.259Z,99229.97
2023-01-29T20:06:22.894Z,99230.41
2023-01-29T20:08:50.260Z,99215.78
2023-01-29T20:11:20.357Z,99235.22
2023-01-29T20:13:49.778Z,99235.34
2023-01-29T20:16:18.129Z,99217.06
2023-01-29T20:18:45.341Z,99228.88
2023-01-29T20:21:15.112Z,99201.84
2023-01-29T20:23:44.850Z,99212.22
2023-01-29T20:26:15.049Z,99206.78
2023-01-29T20:28:43.334Z,99208.66
2023-01-29T20:31:10.630Z,99204.69
2023-01-29T20:33:39.461Z,99194.53
2023-01-29T20:36:10.210Z,99200.88
2023-01-29T20:38:37.586Z,99196.19
2023-01-29T20:41:16.210Z,99197.56
2023-01-29T20:43:44.775Z,99191.66
2023-01-29T20:46:12.714Z,99185.78
2023-01-29T20:48:40.179Z,99187.66
2023-01-29T20:51:09.955Z,99164.50
2023-01-29T20:53:37.359Z,99166.16
2023-01-29T20:56:05.245Z,99157.19
2023-01-29T20:58:32.597Z,99166.31
2023-01-29T21:01:00.357Z,99174.66
2023-01-29T21:03:27.903Z,99178.81
2023-01-29T21:05:59.179Z,99154.00
2023-01-29T21:08:26.432Z,99190.47
2023-01-29T21:10:53.824Z,99178.53
2023-01-29T21:13:21.254Z,99175.59
2023-01-29T21:15:51.166Z,99180.56
2023-01-29T21:18:18.331Z,99175.88
2023-01-29T21:20:45.640Z,99162.63
2023-01-29T21:23:12.749Z,99170.19
2023-01-29T21:25:41.283Z,99176.41
2023-01-29T21:28:08.543Z,99161.66
2023-01-29T21:30:35.717Z,99169.53
2023-01-29T21:33:03.262Z,99158.63
2023-01-29T21:35:30.365Z,99145.03
2023-01-29T21:37:57.836Z,99125.81
2023-01-29T21:40:25.449Z,99152.72
2023-01-29T21:43:11.572Z,99149.88
2023-01-29T21:45:39.994Z,99156.72
2023-01-29T21:48:08.227Z,99153.53
2023-01-29T21:50:35.628Z,99153.44
2023-01-29T21:53:02.832Z,99155.72
2023-01-29T21:55:30.134Z,99149.56
2023-01-29T21:57:57.250Z,99157.09
2023-01-29T22:00:24.356Z,99160.97
2023-01-29T22:02:51.529Z,99160.56
2023-01-29T22:05:20.185Z,99161.03
2023-01-29T22:07:48.865Z,99162.91
2023-01-29T22:10:18.600Z,99157.63
2023-01-29T22:12:46.876Z,99150.53
2023-01-29T22:15:14.979Z,99142.16
2023-01-29T22:17:42.580Z,99144.81
2023-01-29T22:20:12.532Z,99154.41
2023-01-29T22:22:39.682Z,99143.94
2023-01-29T22:25:07.217Z,99138.75
2023-01-29T22:27:34.684Z,99127.41
2023-01-29T22:30:01.939Z,99129.38
2023-01-29T22:32:32.105Z,99116.28
2023-01-29T22:34:59.835Z,99105.25
2023-01-29T22:37:27.001Z,99113.75
2023-01-29T22:39:54.062Z,99115.78
2023-01-29T22:42:21.249Z,99114.38
2023-01-29T22:44:48.727Z,99097.22
2023-01-29T22:47:16.171Z,99094.41
2023-01-29T22:49:45.690Z,99091.06
2023-01-29T22:52:12.903Z,99079.25
2023-01-29T22:54:42.506Z,99089.34
2023-01-29T22:57:15.078Z,99078.81
2023-01-29T22:59:42.186Z,99081.53
2023-01-29T23:02:10.010Z,99069.16
2023-01-29T23:04:37.306Z,99082.63
2023-01-29T23:07:04.690Z,99075.06
2023-01-29T23:09:31.739Z,99075.06
2023-01-29T23:11:58.897Z,99056.84
2023-01-29T23:14:26.036Z,99052.63
2023-01-29T23:16:53.143Z,99068.66
2023-01-29T23:19:20.392Z,99059.72
2023-01-29T23:21:47.560Z,99065.94
2023-01-29T23:24:14.690Z,99035.72
2023-01-29T23:27:00.551Z,99055.59
2023-01-29T23:29:27.630Z,99056.09
2023-01-29T23:31:54.764Z,99052.13
2023-01-29T23:34:22.042Z,99051.19
2023-01-29T23:36:49.163Z,99046.84
2023-01-29T23:39:16.737Z,99046.63
2023-01-29T23:41:44.347Z,99051.44
2023-01-29T23:44:11.417Z,99032.31
2023-01-29T23:46:38.755Z,99030.22
2023-01-29T23:49:07.378Z,99024.31
2023-01-29T23:51:34.787Z,99026.19
2023-01-29T23:54:01.873Z,99028.34
2023-01-29T23:56:29.058Z,99018.44
2023-01-29T23:58:57.688Z,99026.78
